Reno - Stead, NV

8:21 PM PDT on August 22, 2017 (GMT -0700)
Reno - Stead | | Change Station
Active Advisory: Areal Flood Advisory Active Notice: Areal Flood Advisory

Elev 5049 ft 39.67 °N, 119.88 °W | Updated 6 minutes ago

Overcast
Overcast
63 °F
Feels Like 63 °F
N
8
Wind Variable Wind from NNW

Today
High -- | Low -- °F
--% Chance of Precip.
Yesterday
High -- | Low -- °F
Precip. -- in
Pressure 30.24 in
Visibility 10.0 miles
Clouds Few 7500 ft
Mostly Cloudy 9000 ft
Overcast 12000 ft
Dew Point 54 °F
Humidity 72%
Rainfall 0.23 in
Snow Depth Not available.
6:18 AM 7:45 PM
New Moon, 2% visible
METAR KRTS 230315Z AUTO 33007KT 10SM FEW075 BKN090 OVC120 17/12 A3024 RMK AO2
Pressure 30.24 in
Visibility 10.0 miles
Clouds Few 7500 ft
Mostly Cloudy 9000 ft
Overcast 12000 ft
Dew Point 54 °F
Humidity 72%
Rainfall 0.23 in
Snow Depth Not available.
6:18 AM 7:45 PM
New Moon, 2% visible
METAR KRTS 230315Z AUTO 33007KT 10SM FEW075 BKN090 OVC120 17/12 A3024 RMK AO2

Get Your Daily Forecast Email!

Thanks for signing up!

Be on the lookout for a verification email in your inbox.

You'll start receiving severe weather alerts in your inbox..

×

10-Day Weather Forecast

Almanac

Astronomy

Aug. 22, 2017 Rise Set
Actual Time
Civil Twilight
Nautical Twilight
Astronomical Twilight
Moon
Length of Visible Light
Length of Day
Tomorrow will be .
, % of the Moon is Illuminated

Today's Extremes

State Highs State Lows

Community

WunderPhotos

Category 6

Welcome to Category 6. This is the collective home for Weather Underground's featured writeups by Dr. Jeff Masters (right), Bob Henson (left), Chris Burt, and other regular contributors.

Nearby

Air Quality

  Air Quality AQ Index Pollutant
Not available.

Snow Depth

Station Depth Elevation

Earthquake Activity

City Distance Mag. Time & Date
Minimum magnitude displayed is 2.5.

Coastal Water Temperatures

Place Temperature

Stations

Nearby Weather Stations

Station Location Temp. Windchill Dew Point Humidity Wind Precip. Elev Updated Type
                   

Watches & Warnings

Areal Flood Advisory
Issued: 6:33 PM PDT Aug. 22, 2017 – National Weather Service

The National Weather Service in Reno has issued a

* flood advisory for...
central Lyon County in west central Nevada...

* until 930 PM PDT

* at 630 PM PDT, Doppler radar indicated heavy rain due to
thunderstorms. This will cause minor street flooding and ponding
of water on roads in the Mason Valley including at Mason and
Yerington.

* Some locations that will experience flooding include...
Yerington, Mason, Weed Heights and Yerington Municipal Airport.

Precautionary/preparedness actions...

In hilly terrain low water crossings are potentially dangerous in
heavy rain. Do not attempt to cross flooded roads. Find an alternate
Route.


Lat... Lon 3890 11902 3884 11924 3904 11930 3908 11903


Jm